Terminal Aerodrome Forecast
Issued by NWS King Salmon, AK

Home | Current Version | Previous Version | Text Only | Print | Product List | Glossary On
Versions: 1 2 3 4 5 6 7 8 9 10 11 12 13 14 15 16 17
000
FTAK31 PANC 162218 AAA
TAFAKN
TAF AMD
PAKN 162218Z 1622/1718 20011KT P6SM -RA SCT018 OVC025
      TEMPO 1622/1702 20011G20KT 6SM -RA BR BKN018
     FM170200 22009KT P6SM -RA SCT005 OVC018
     FM170600 23008KT P6SM VCSH SCT012 BKN018=

USA.gov is the U.S. government's official web portal to all federal, state and local government web resources and services.